Harmony, Texas
Current Conditions -  °F | °C
As of 4:55 AM on Thursday 27 Nov 2014 (Local Time) from KRFI Reporting Station
Clear Clear  
Wind Chill: 38°   Ceiling: Unl
Heat Index: 41°   Visibility: 10mi
Dew Point: 30°   Wind: 5mph
Humidity: 66%   Direction: 360°N
Pressure: 30.45"   Gusts: NA
Location:  32.2818°N, 94.951°W
Report Text: KRFI 271055Z AUTO 36004KT 10SM CLR 05/M01 A3045 RMK AO2 T00501009
Loading
Personal Weather Stations






























Interactive Weather Map New forecast layout! Learn more

10-Day Weather Forecast

Advertisements
Track Severe Weather on mobile